Time;durP1;ratioP1;P1;durP2;ratioP2;P2;SDS_P1;SDS_P2;PMS_P1;PMS_P2;Temp;Humidity;BMP_temperature;BMP_pressure;BME280_temperature;BME280_humidity;BME280_pressure;Samples;Min_cycle;Max_cycle;Signal;HPM_P1;HPM_P2
2022/07/21 00:01:49;;;;;;;12.13;3.75;;;24.10;89.50;;;;;;5027979;28;20037;-51
2022/07/21 00:04:15;;;;;;;5.72;4.13;;;24.10;89.90;;;;;;5022699;28;20487;-53
2022/07/21 00:06:42;;;;;;;6.95;3.63;;;24.00;90.20;;;;;;5020808;28;20025;-52
2022/07/21 00:09:09;;;;;;;6.47;3.80;;;23.90;90.40;;;;;;5045171;28;20040;-51
2022/07/21 00:11:35;;;;;;;7.07;4.03;;;;;;;;;;5025067;28;20389;-52
2022/07/21 00:14:01;;;;;;;10.43;3.92;;;24.00;90.10;;;;;;5025088;28;20029;-51
2022/07/21 00:16:27;;;;;;;9.48;3.95;;;24.00;90.40;;;;;;5007649;28;20473;-52
2022/07/21 00:18:53;;;;;;;9.10;4.45;;;24.00;90.50;;;;;;5017577;28;20080;-53
2022/07/21 00:21:19;;;;;;;9.23;4.25;;;23.90;90.50;;;;;;4992529;28;20063;-53
2022/07/21 00:23:45;;;;;;;10.52;4.20;;;24.00;90.30;;;;;;5020029;28;20126;-53
2022/07/21 00:26:12;;;;;;;7.15;3.67;;;24.00;90.30;;;;;;5019623;28;20127;-53
2022/07/21 00:28:38;;;;;;;10.23;5.10;;;24.00;90.20;;;;;;5022250;28;20027;-52
2022/07/21 00:31:03;;;;;;;9.90;4.30;;;24.00;90.20;;;;;;5024885;28;20038;-51
2022/07/21 00:33:29;;;;;;;8.10;3.72;;;23.90;90.30;;;;;;4992037;28;20037;-52
2022/07/21 00:35:55;;;;;;;8.68;4.07;;;23.80;90.50;;;;;;5015686;28;20045;-53
2022/07/21 00:38:21;;;;;;;6.15;3.55;;;23.70;90.70;;;;;;5024944;28;20021;-51
2022/07/21 00:40:46;;;;;;;7.32;4.10;;;23.60;90.90;;;;;;5019007;28;20029;-51
2022/07/21 00:43:13;;;;;;;7.07;3.95;;;;;;;;;;5019502;28;20038;-52
2022/07/21 00:45:39;;;;;;;12.10;4.18;;;;;;;;;;5012882;28;20042;-52
2022/07/21 00:48:05;;;;;;;11.77;4.30;;;23.40;99.90;;;;;;5028299;28;20044;-54
2022/07/21 00:50:32;;;;;;;7.60;6.07;;;;;;;;;;5016907;28;20074;-51
2022/07/21 00:52:58;;;;;;;11.13;6.45;;;;;;;;;;5014328;28;20040;-51
2022/07/21 00:55:24;;;;;;;10.85;5.55;;;;;;;;;;5040624;28;20544;-54
2022/07/21 00:57:52;;;;;;;6.60;4.70;;;;;;;;;;5029004;28;20649;-52
2022/07/21 01:00:25;;;;;;;150.93;135.05;;;23.30;91.50;;;;;;5021549;28;20366;-53
2022/07/21 01:02:51;;;;;;;5.60;4.47;;;;;;;;;;5021562;28;20069;-50
2022/07/21 01:05:18;;;;;;;28.85;15.02;;;23.00;91.80;;;;;;5021981;28;20025;-52
2022/07/21 01:07:50;;;;;;;16.52;5.13;;;22.90;92.10;;;;;;5021956;28;20033;-51
2022/07/21 01:10:17;;;;;;;;;;;22.80;92.30;;;;;;5030708;28;20052;-53
2022/07/21 01:12:43;;;;;;;7.78;3.70;;;;;;;;;;5018378;28;19905;-52
2022/07/21 01:15:12;;;;;;;7.60;4.20;;;22.70;99.90;;;;;;5026503;28;20037;-51
2022/07/21 01:17:38;;;;;;;7.82;3.70;;;22.60;92.90;;;;;;5023958;28;20025;-53
2022/07/21 01:20:09;;;;;;;19.65;9.38;;;22.50;93.10;;;;;;5021591;28;20028;-51
2022/07/21 01:22:36;;;;;;;;;;;22.40;93.30;;;;;;5008261;28;20132;-53
2022/07/21 01:25:03;;;;;;;7.90;3.78;;;;;;;;;;5020927;28;19940;-53
2022/07/21 01:27:29;;;;;;;8.85;4.07;;;22.40;99.90;;;;;;5022827;28;20034;-54
2022/07/21 01:29:56;;;;;;;7.45;4.22;;;22.20;93.80;;;;;;5023586;28;20022;-51
2022/07/21 01:32:23;;;;;;;22.65;12.57;;;22.20;94.30;;;;;;5043309;28;20108;-53
2022/07/21 01:34:49;;;;;;;6.75;4.30;;;22.10;94.60;;;;;;5025801;28;20388;-53
2022/07/21 01:37:15;;;;;;;12.27;4.57;;;22.10;94.90;;;;;;5025979;28;20025;-51
2022/07/21 01:42:25;;;;;;;10.38;4.22;;;22.10;95.10;;;;;;5022375;28;20098;-50
2022/07/21 01:44:51;;;;;;;8.98;4.00;;;22.20;95.20;;;;;;5037884;28;20731;-51
2022/07/21 01:47:17;;;;;;;7.05;3.85;;;22.20;95.20;;;;;;5024400;28;20469;-51
2022/07/21 01:49:44;;;;;;;11.85;4.13;;;22.20;95.30;;;;;;5017430;28;20030;-51
2022/07/21 01:52:10;;;;;;;10.93;4.13;;;22.30;95.30;;;;;;5020491;28;20029;-53
2022/07/21 01:54:36;;;;;;;9.48;4.90;;;22.30;95.50;;;;;;5025527;28;20030;-52
2022/07/21 01:57:02;;;;;;;5.93;4.20;;;22.20;95.70;;;;;;5031760;28;20028;-53
2022/07/21 01:59:28;;;;;;;7.30;4.28;;;;;;;;;;5028250;28;20079;-53
2022/07/21 02:01:54;;;;;;;10.73;4.28;;;22.20;99.90;;;;;;5025465;28;20034;-52
2022/07/21 02:04:20;;;;;;;7.13;4.15;;;22.00;96.30;;;;;;5029262;28;20104;-52
2022/07/21 02:06:46;;;;;;;6.35;3.92;;;22.00;96.40;;;;;;5022976;28;20108;-52
2022/07/21 02:09:11;;;;;;;9.15;3.72;;;22.00;96.60;;;;;;5048667;28;20038;-53
2022/07/21 02:11:38;;;;;;;7.68;4.22;;;;;;;;;;5029747;28;20072;-52
2022/07/21 02:14:04;;;;;;;7.10;3.90;;;;;;;;;;5030410;28;20025;-52
2022/07/21 02:16:30;;;;;;;7.63;4.07;;;;;;;;;;5027157;28;20046;-53
2022/07/21 02:18:56;;;;;;;8.57;3.80;;;22.30;96.00;;;;;;5023216;28;20058;-52
2022/07/21 02:21:22;;;;;;;9.32;4.90;;;22.20;96.20;;;;;;5047295;28;20039;-52
2022/07/21 02:23:48;;;;;;;13.73;4.75;;;22.30;96.10;;;;;;5026724;28;20029;-51
2022/07/21 02:26:14;;;;;;;9.82;4.88;;;;;;;;;;5032757;28;20457;-53
2022/07/21 02:28:40;;;;;;;10.73;4.40;;;22.60;99.90;;;;;;5025531;28;20434;-52
2022/07/21 02:31:06;;;;;;;7.07;3.80;;;22.60;99.10;;;;;;5020615;28;20054;-53
2022/07/21 02:33:33;;;;;;;9.60;4.13;;;22.40;97.10;;;;;;5026517;28;20059;-52
2022/07/21 02:35:58;;;;;;;5.72;3.80;;;22.00;97.20;;;;;;5033168;28;20041;-52
2022/07/21 02:38:25;;;;;;;26.20;21.85;;;;;;;;;;5022519;28;20034;-52
2022/07/21 02:40:51;;;;;;;14.35;7.60;;;;;;;;;;5021546;28;20021;-53
2022/07/21 02:43:17;;;;;;;11.65;4.72;;;21.50;99.90;;;;;;5030784;28;20404;-51
2022/07/21 02:45:43;;;;;;;7.93;4.57;;;21.10;99.20;;;;;;5025332;28;20044;-51
2022/07/21 02:48:13;;;;;;;9.93;5.28;;;21.10;99.90;;;;;;5025539;28;20022;-53
2022/07/21 02:50:41;;;;;;;12.82;4.68;;;;;;;;;;5020881;28;20589;-53
2022/07/21 02:53:11;;;;;;;13.30;4.82;;;;;;;;;;5021760;28;20026;-54
2022/07/21 02:55:38;;;;;;;13.70;4.63;;;;;;;;;;5026199;28;20420;-51
2022/07/21 02:58:07;;;;;;;9.13;4.70;;;;;;;;;;5029585;28;20036;-51
2022/07/21 03:00:34;;;;;;;10.50;5.22;;;;;;;;;;5025708;28;20029;-51
2022/07/21 03:03:00;;;;;;;14.73;6.45;;;;;;;;;;5016292;28;20037;-51
2022/07/21 03:05:26;;;;;;;9.02;4.55;;;;;;;;;;5022549;28;20042;-53
2022/07/21 03:07:52;;;;;;;12.05;5.00;;;;;;;;;;5024499;28;20045;-51
2022/07/21 03:10:18;;;;;;;7.25;4.20;;;;;;;;;;5023725;28;20040;-53
2022/07/21 03:12:44;;;;;;;6.32;4.78;;;;;;;;;;5027312;28;20049;-51
2022/07/21 03:15:10;;;;;;;8.63;4.68;;;;;;;;;;5022309;28;20029;-53
2022/07/21 03:17:37;;;;;;;12.18;5.13;;;;;;;;;;5028271;28;20060;-53
2022/07/21 03:20:03;;;;;;;9.63;4.82;;;;;;;;;;5025275;28;20032;-53
2022/07/21 03:22:29;;;;;;;5.97;4.07;;;;;;;;;;5019248;28;20041;-52
2022/07/21 03:24:55;;;;;;;6.15;4.20;;;;;;;;;;5025964;28;20022;-51
2022/07/21 03:27:21;;;;;;;11.52;4.55;;;;;;;;;;5021602;28;20022;-51
2022/07/21 03:29:47;;;;;;;12.20;4.85;;;;;;;;;;5016255;28;20053;-53
2022/07/21 03:32:13;;;;;;;8.93;4.45;;;21.60;99.90;;;;;;5020950;28;20033;-51
2022/07/21 03:34:39;;;;;;;8.00;4.20;;;21.10;99.90;;;;;;5030186;28;20095;-54
2022/07/21 03:37:05;;;;;;;6.07;4.32;;;21.00;99.90;;;;;;5027625;28;20048;-53
2022/07/21 03:39:30;;;;;;;10.80;4.88;;;20.90;99.90;;;;;;5022927;28;20386;-53
2022/07/21 03:41:56;;;;;;;10.32;5.43;;;20.90;99.90;;;;;;5025234;28;20038;-52
2022/07/21 03:44:22;;;;;;;11.93;4.47;;;;;;;;;;5027410;28;20052;-54
2022/07/21 03:46:48;;;;;;;9.13;4.63;;;20.90;99.90;;;;;;5023515;28;20026;-53
2022/07/21 03:49:14;;;;;;;4.72;3.60;;;20.80;99.90;;;;;;5021977;28;20021;-52
2022/07/21 03:51:39;;;;;;;5.78;4.00;;;20.80;99.90;;;;;;5021166;28;20568;-51
2022/07/21 03:54:05;;;;;;;5.93;4.75;;;20.60;99.90;;;;;;5006231;28;20040;-53
2022/07/21 03:56:31;;;;;;;9.07;4.18;;;20.60;99.90;;;;;;5029252;28;20025;-52
2022/07/21 03:58:57;;;;;;;11.48;4.57;;;20.60;99.90;;;;;;5028056;28;20041;-50
2022/07/21 04:01:22;;;;;;;6.30;3.92;;;20.50;99.90;;;;;;5022477;28;20116;-51
2022/07/21 04:03:48;;;;;;;10.75;4.38;;;20.70;99.90;;;;;;5021400;28;20485;-54
2022/07/21 04:06:14;;;;;;;7.68;4.20;;;20.70;99.90;;;;;;5018215;28;20052;-52
2022/07/21 04:08:39;;;;;;;8.13;4.10;;;20.90;99.90;;;;;;5021824;28;20034;-54
2022/07/21 04:11:05;;;;;;;6.03;3.42;;;21.10;99.90;;;;;;5023713;28;20393;-51
2022/07/21 04:13:31;;;;;;;5.88;4.05;;;21.10;99.90;;;;;;5023814;28;20059;-50
2022/07/21 04:15:57;;;;;;;8.43;4.55;;;21.20;99.90;;;;;;5027629;28;20033;-53
2022/07/21 04:18:23;;;;;;;8.48;3.85;;;21.30;99.90;;;;;;5023040;28;20021;-51
2022/07/21 04:20:48;;;;;;;8.40;3.90;;;21.40;99.90;;;;;;5029059;28;20504;-51
2022/07/21 04:23:14;;;;;;;5.80;3.70;;;21.50;99.90;;;;;;5025496;28;20056;-53
2022/07/21 04:25:40;;;;;;;5.60;3.63;;;21.60;99.90;;;;;;5030229;28;20030;-53
2022/07/21 04:28:07;;;;;;;5.95;3.40;;;21.70;99.90;;;;;;5030150;28;20052;-52
2022/07/21 04:30:33;;;;;;;3.95;3.08;;;21.80;99.90;;;;;;5030692;28;20030;-50
2022/07/21 04:32:59;;;;;;;9.35;4.55;;;22.00;99.90;;;;;;5026699;28;20500;-53
2022/07/21 04:35:24;;;;;;;7.68;3.45;;;22.10;99.90;;;;;;5024658;28;20127;-51
2022/07/21 04:37:51;;;;;;;6.15;3.28;;;22.20;99.90;;;;;;5025058;28;20033;-52
2022/07/21 04:40:18;;;;;;;10.80;3.17;;;22.30;99.90;;;;;;5032080;28;20052;-52
2022/07/21 04:42:44;;;;;;;9.52;3.58;;;22.40;99.60;;;;;;5032007;28;20104;-52
2022/07/21 04:48:57;;;;;;;6.13;2.85;;;22.60;99.40;;;;;;5033076;28;20126;-51
2022/07/21 04:54:44;;;;;;;8.43;3.42;;;23.10;99.90;;;;;;5033264;28;20056;-52
2022/07/21 05:00:32;;;;;;;6.05;3.40;;;23.20;97.90;;;;;;5013414;28;20033;-52
2022/07/21 05:06:01;;;;;;;6.43;3.80;;;23.50;97.40;;;;;;5013494;28;20141;-51
2022/07/21 05:11:49;;;;;;;8.32;4.07;;;23.60;97.90;;;;;;5013290;28;20099;-54
2022/07/21 05:17:18;;;;;;;7.60;3.60;;;24.00;99.90;;;;;;5021923;28;20045;-50
2022/07/21 05:23:08;;;;;;;9.48;4.53;;;24.10;97.20;;;;;;5021447;28;20088;-53
2022/07/21 05:28:55;;;;;;;10.93;4.87;;;24.30;97.00;;;;;;5035423;28;20095;-53
2022/07/21 05:34:42;;;;;;;9.63;3.75;;;24.40;96.90;;;;;;5037103;28;20037;-54
2022/07/21 05:40:12;;;;;;;9.82;4.38;;;24.60;96.70;;;;;;5036760;28;20032;-51
2022/07/21 05:46:00;;;;;;;10.30;4.38;;;;;;;;;;5025840;28;20123;-50
2022/07/21 05:49:17;;;;;;;8.07;3.47;;;25.10;96.50;;;;;;5036340;28;20048;-52
2022/07/21 05:55:17;;;;;;;11.30;4.00;;;25.30;95.80;;;;;;5036150;28;20044;-52
2022/07/21 06:01:25;;;;;;;6.80;3.80;;;;;;;;;;5036302;28;20149;-51
2022/07/21 06:07:32;;;;;;;10.00;3.30;;;25.90;95.40;;;;;;5036071;28;20499;-53
2022/07/21 06:13:40;;;;;;;9.18;2.97;;;;;;;;;;5035838;28;20099;-53
2022/07/21 06:19:23;;;;;;;5.50;3.45;;;;;;;;;;5036089;28;20080;-51
2022/07/21 06:25:29;;;;;;;10.57;3.72;;;;;;;;;;5035850;28;20041;-53
2022/07/21 06:31:05;;;;;;;16.77;3.83;;;26.80;99.90;;;;;;5035758;28;20389;-51
2022/07/21 06:37:00;;;;;;;6.55;2.80;;;;;;;;;;5016111;28;20080;-53
2022/07/21 06:42:35;;;;;;;7.40;3.83;;;27.40;92.30;;;;;;5025741;28;20132;-52
2022/07/21 06:48:29;;;;;;;3.38;2.55;;;27.70;91.70;;;;;;5010998;28;20131;-54
2022/07/21 06:51:45;;;;;;;6.88;3.15;;;27.80;91.50;;;;;;5022486;28;20070;-54
2022/07/21 06:54:10;;;;;;;6.03;2.85;;;27.90;91.50;;;;;;5027829;28;20025;-54
2022/07/21 06:56:36;;;;;;;5.28;3.05;;;28.00;91.70;;;;;;5024574;28;20049;-51
2022/07/21 06:59:02;;;;;;;6.85;2.90;;;;;;;;;;5026814;28;20104;-52
2022/07/21 07:01:28;;;;;;;4.90;2.83;;;28.30;91.60;;;;;;5029029;28;20029;-54
2022/07/21 07:03:54;;;;;;;5.38;2.78;;;;;;;;;;5024120;28;20128;-52
2022/07/21 07:06:21;;;;;;;8.00;2.80;;;28.50;90.90;;;;;;5029898;28;20465;-52
2022/07/21 07:08:47;;;;;;;7.13;3.10;;;28.60;90.80;;;;;;5026141;28;20045;-51
2022/07/21 07:11:13;;;;;;;4.82;2.65;;;28.70;90.50;;;;;;5030894;28;20033;-52
2022/07/21 07:13:38;;;;;;;6.05;2.75;;;28.90;92.60;;;;;;5026357;28;20753;-52
2022/07/21 07:16:04;;;;;;;4.38;2.28;;;28.70;90.20;;;;;;5041589;28;20137;-52
2022/07/21 07:18:30;;;;;;;4.22;2.53;;;29.00;90.40;;;;;;5021782;28;20034;-49
2022/07/21 07:20:56;;;;;;;4.90;2.45;;;;;;;;;;5030275;28;20051;-51
2022/07/21 07:23:22;;;;;;;8.50;2.50;;;29.20;89.00;;;;;;5021972;28;20036;-57
2022/07/21 07:25:48;;;;;;;8.65;2.70;;;29.30;89.10;;;;;;5026888;28;20029;-52
2022/07/21 07:28:13;;;;;;;9.48;2.75;;;29.60;87.90;;;;;;5019127;28;20025;-52
2022/07/21 07:30:40;;;;;;;7.25;2.63;;;;;;;;;;5028584;28;20128;-51
2022/07/21 07:33:05;;;;;;;6.28;2.67;;;29.80;87.50;;;;;;5020149;28;20519;-51
2022/07/21 07:35:31;;;;;;;9.10;2.65;;;;;;;;;;5024999;28;20033;-51
2022/07/21 07:37:57;;;;;;;4.70;2.28;;;29.90;86.80;;;;;;5023191;28;20033;-51
2022/07/21 07:40:24;;;;;;;3.28;2.15;;;30.10;86.30;;;;;;5021114;28;20377;-50
2022/07/21 07:42:50;;;;;;;4.50;2.33;;;30.30;88.20;;;;;;5044956;28;20061;-51
2022/07/21 09:04:24;;;;;;;9.65;2.45;;;;;;;;;;5076860;27;20875;-48
2022/07/21 09:06:54;;;;;;;21.23;6.55;;;33.30;79.90;;;;;;5052208;28;20399;-49
2022/07/21 09:09:21;;;;;;;18.25;10.55;;;33.30;79.10;;;;;;5024390;28;20075;-50
2022/07/21 09:11:47;;;;;;;6.30;2.40;;;33.40;79.00;;;;;;5048469;28;20365;-50
2022/07/21 09:14:21;;;;;;;6.15;2.53;;;33.50;78.70;;;;;;5055495;28;20029;-50
2022/07/21 09:16:50;;;;;;;4.13;2.28;;;33.70;79.80;;;;;;5052388;28;20507;-49
2022/07/21 09:19:45;;;;;;;40.78;23.10;;;33.80;77.80;;;;;;5056206;28;20029;-50
2022/07/21 09:22:18;;;;;;;39.80;20.52;;;;;;;;;;5043041;28;20408;-50
2022/07/21 09:24:49;;;;;;;1010.25;936.67;;;;;;;;;;5056523;28;20057;-51
2022/07/21 09:27:21;;;;;;;52.40;46.00;;;34.20;76.50;;;;;;5054181;28;20033;-49
2022/07/21 09:29:48;;;;;;;5.90;3.17;;;34.50;90.70;;;;;;5075399;28;20068;-49
2022/07/21 09:32:24;;;;;;;14.77;12.05;;;34.30;77.10;;;;;;5068364;28;20048;-50
2022/07/21 09:34:52;;;;;;;3.20;2.10;;;34.60;82.90;;;;;;5065128;28;20124;-49
2022/07/21 09:37:18;;;;;;;3.75;2.33;;;34.60;80.30;;;;;;5079932;28;20102;-49
2022/07/21 09:39:49;;;;;;;105.43;95.57;;;34.70;76.70;;;;;;5046230;28;20050;-50
2022/07/21 09:42:20;;;;;;;146.60;133.20;;;34.90;77.90;;;;;;5058493;28;20041;-50
2022/07/21 09:44:49;;;;;;;614.42;566.80;;;35.00;76.20;;;;;;5039067;28;20038;-49
2022/07/21 09:47:21;;;;;;;195.85;176.05;;;35.00;75.70;;;;;;5077416;28;20036;-50
2022/07/21 09:49:46;;;;;;;130.80;114.90;;;35.30;75.20;;;;;;5064490;28;20044;-50
2022/07/21 09:52:22;;;;;;;18.63;14.40;;;35.50;74.00;;;;;;5042987;28;20041;-50
2022/07/21 09:54:49;;;;;;;311.08;287.92;;;35.40;74.00;;;;;;5065276;28;20441;-51
2022/07/21 09:57:18;;;;;;;3.55;2.00;;;35.50;73.40;;;;;;5037936;28;20728;-51
2022/07/21 09:59:46;;;;;;;6.65;1.88;;;35.30;71.80;;;;;;5075281;28;20073;-50
2022/07/21 10:02:17;;;;;;;4.15;1.80;;;35.40;74.00;;;;;;5052355;28;20135;-51
2022/07/21 10:04:46;;;;;;;295.35;264.33;;;35.30;73.50;;;;;;5050521;28;20037;-51
2022/07/21 10:07:13;;;;;;;9.80;2.83;;;35.30;72.80;;;;;;5047367;28;20037;-52
2022/07/21 10:09:40;;;;;;;38.15;14.07;;;35.60;72.90;;;;;;5036920;28;20045;-50
2022/07/21 10:12:06;;;;;;;6.57;2.20;;;36.00;72.40;;;;;;5033290;28;20080;-49
2022/07/21 10:14:32;;;;;;;408.75;371.70;;;;;;;;;;5037086;28;20033;-50
2022/07/21 10:16:58;;;;;;;3.78;1.90;;;36.30;70.60;;;;;;5041157;28;20029;-50
2022/07/21 10:19:36;;;;;;;5.93;2.55;;;36.30;71.90;;;;;;5038927;28;20649;-50
2022/07/21 10:22:08;;;;;;;7.40;2.47;;;;;;;;;;5035724;28;20033;-50
2022/07/21 10:24:34;;;;;;;13.65;2.75;;;36.80;70.00;;;;;;5040675;28;20359;-50
2022/07/21 10:27:12;;;;;;;5.22;1.95;;;36.70;70.30;;;;;;5034496;28;20031;-50
2022/07/21 10:30:00;;;;;;;13.23;3.10;;;36.90;69.60;;;;;;5033535;28;20040;-50
2022/07/21 10:32:34;;;;;;;13.10;2.45;;;36.80;70.50;;;;;;5034453;28;20108;-50
2022/07/21 10:35:23;;;;;;;3.28;1.67;;;37.00;71.00;;;;;;5048238;28;20037;-49
2022/07/21 10:37:49;;;;;;;13.43;9.00;;;37.60;71.20;;;;;;5033814;28;20025;-51
2022/07/21 10:40:18;;;;;;;858.60;793.60;;;37.60;69.70;;;;;;5033647;28;20385;-50
2022/07/21 10:42:44;;;;;;;53.83;45.00;;;37.70;68.80;;;;;;5030911;28;20124;-51
2022/07/21 10:45:30;;;;;;;64.57;57.83;;;37.50;69.60;;;;;;5036361;28;20029;-49
2022/07/21 10:47:56;;;;;;;3.45;1.98;;;37.00;68.50;;;;;;5035070;28;20048;-50
2022/07/21 10:50:33;;;;;;;19.23;7.28;;;;;;;;;;5035267;28;20491;-50
2022/07/21 10:53:01;;;;;;;2.58;2.10;;;37.60;69.40;;;;;;5035790;28;20139;-49
2022/07/21 10:55:30;;;;;;;4.82;2.00;;;37.80;75.30;;;;;;5041848;28;20029;-54
2022/07/21 10:58:15;;;;;;;8.48;2.00;;;38.00;81.10;;;;;;5053144;28;20029;-50
2022/07/21 11:00:46;;;;;;;5.07;1.75;;;38.20;68.90;;;;;;5051151;28;20063;-51
2022/07/21 11:03:14;;;;;;;;;;;37.90;69.20;;;;;;5030658;28;20045;-52
2022/07/21 11:06:09;;;;;;;4.72;2.05;;;38.10;74.60;;;;;;5053283;28;19904;-53
2022/07/21 11:08:41;;;;;;;6.00;2.10;;;38.20;73.00;;;;;;5035087;28;20480;-50
2022/07/21 11:11:22;;;;;;;5.40;2.00;;;37.80;71.90;;;;;;5056220;28;20051;-49
2022/07/21 11:14:10;;;;;;;4.28;2.20;;;37.90;75.80;;;;;;5059265;28;20041;-47
2022/07/21 11:16:41;;;;;;;6.43;2.08;;;38.10;73.40;;;;;;5057652;28;20063;-50
2022/07/21 11:19:25;;;;;;;;;;;38.20;74.90;;;;;;5053813;28;20041;-49
2022/07/21 11:21:51;;;;;;;4.80;2.30;;;38.10;68.50;;;;;;5053827;28;19912;-47
2022/07/21 11:24:21;;;;;;;6.30;2.60;;;38.20;67.90;;;;;;5053620;28;20029;-53
2022/07/21 11:26:55;;;;;;;8.60;2.65;;;;;;;;;;5053217;28;20396;-47
2022/07/21 11:29:21;;;;;;;5.03;2.10;;;38.80;68.60;;;;;;5052127;28;20075;-50
2022/07/21 11:31:48;;;;;;;8.70;3.08;;;39.10;77.80;;;;;;5048837;28;20052;-51
2022/07/21 11:34:13;;;;;;;5.47;2.75;;;39.00;67.00;;;;;;5040492;28;20032;-56
2022/07/21 11:36:39;;;;;;;4.03;1.88;;;;;;;;;;5052039;28;20132;-49
2022/07/21 11:39:07;;;;;;;5.65;2.20;;;;;;;;;;5040264;28;20373;-51
2022/07/21 11:41:35;;;;;;;2.92;2.22;;;39.20;67.90;;;;;;5036883;28;20037;-53
2022/07/21 11:44:01;;;;;;;5.70;2.10;;;;;;;;;;5031688;28;20022;-53
2022/07/21 11:46:28;;;;;;;3.90;2.30;;;;;;;;;;5035886;28;20029;-52
2022/07/21 11:49:06;;;;;;;6.88;2.05;;;39.80;68.20;;;;;;5034544;28;20408;-51
2022/07/21 11:51:31;;;;;;;10.07;2.22;;;39.40;67.20;;;;;;5034346;28;20400;-51
2022/07/21 11:53:58;;;;;;;5.07;2.13;;;39.30;69.10;;;;;;5031489;28;20033;-49
2022/07/21 11:56:24;;;;;;;7.10;2.28;;;39.60;69.00;;;;;;5032916;28;20501;-51
2022/07/21 11:58:49;;;;;;;5.38;1.98;;;39.70;68.70;;;;;;5033082;28;20022;-55
2022/07/21 12:01:15;;;;;;;8.82;2.10;;;39.90;68.10;;;;;;5035320;28;20056;-48
2022/07/21 12:03:49;;;;;;;5.35;2.00;;;40.00;68.30;;;;;;5042825;28;20459;-49
2022/07/21 12:06:16;;;;;;;6.03;2.00;;;40.10;67.10;;;;;;5047801;28;20041;-53
2022/07/21 12:08:44;;;;;;;5.78;2.25;;;40.20;67.90;;;;;;5032446;28;20059;-48
2022/07/21 12:11:13;;;;;;;5.18;2.17;;;40.20;66.60;;;;;;5034786;28;20091;-48
2022/07/21 12:13:56;;;;;;;6.88;2.30;;;40.10;66.50;;;;;;5039098;28;20033;-51
2022/07/21 12:16:22;;;;;;;6.50;2.30;;;40.10;66.50;;;;;;5037746;28;20519;-51
2022/07/21 12:18:48;;;;;;;7.97;1.95;;;40.10;66.90;;;;;;5036439;28;20052;-50
2022/07/21 12:21:14;;;;;;;3.40;2.05;;;39.90;66.20;;;;;;5046647;28;20485;-51
2022/07/21 12:23:41;;;;;;;4.22;1.92;;;40.30;68.40;;;;;;5034384;28;20435;-51
2022/07/21 12:26:19;;;;;;;4.20;1.85;;;;;;;;;;5033168;28;20025;-55
2022/07/21 12:28:47;;;;;;;7.60;2.50;;;40.60;64.80;;;;;;5032618;28;20049;-53
2022/07/21 12:31:20;;;;;;;4.25;2.10;;;40.80;65.10;;;;;;5052055;28;20135;-52
2022/07/21 12:33:46;;;;;;;7.07;2.20;;;40.80;63.80;;;;;;5057517;28;20099;-51
2022/07/21 12:36:12;;;;;;;7.03;2.25;;;41.00;65.00;;;;;;5034079;28;20033;-51
2022/07/21 12:38:45;;;;;;;4.78;2.42;;;40.60;63.70;;;;;;5031221;28;20059;-51
2022/07/21 12:41:13;;;;;;;7.97;2.80;;;40.70;64.60;;;;;;5032622;28;20037;-52
2022/07/21 12:43:39;;;;;;;5.03;2.00;;;40.50;65.10;;;;;;5026850;28;20035;-50
2022/07/21 12:46:19;;;;;;;7.20;2.38;;;40.30;64.60;;;;;;5033507;28;20036;-53
2022/07/21 12:48:45;;;;;;;6.45;2.00;;;40.50;64.80;;;;;;5039693;28;20693;-52
2022/07/21 12:51:12;;;;;;;4.15;2.15;;;40.50;64.30;;;;;;5033170;28;20119;-50
2022/07/21 12:53:40;;;;;;;7.30;2.22;;;40.80;65.00;;;;;;5033073;28;20045;-57
2022/07/21 12:56:06;;;;;;;10.90;3.22;;;40.40;64.00;;;;;;5030800;28;20088;-46
2022/07/21 12:58:32;;;;;;;4.38;1.90;;;40.30;63.40;;;;;;4996485;28;20037;-54
2022/07/21 13:00:58;;;;;;;5.80;2.10;;;39.80;63.80;;;;;;5036420;28;20101;-50
2022/07/21 13:03:26;;;;;;;4.72;2.25;;;39.70;65.10;;;;;;5014281;28;20042;-51
2022/07/21 13:05:52;;;;;;;9.25;2.15;;;40.00;65.10;;;;;;5011914;28;20478;-57
2022/07/21 13:08:18;;;;;;;5.05;2.10;;;40.10;64.30;;;;;;5065788;28;20116;-53
2022/07/21 13:10:45;;;;;;;5.45;2.10;;;40.20;64.60;;;;;;5035519;28;20087;-52
2022/07/21 13:13:10;;;;;;;5.15;1.80;;;40.20;64.80;;;;;;5037435;28;20034;-52
2022/07/21 13:15:36;;;;;;;4.00;2.28;;;40.30;63.60;;;;;;5033892;28;20056;-53
2022/07/21 13:18:02;;;;;;;3.85;1.92;;;40.70;63.00;;;;;;5036223;28;20041;-48
2022/07/21 13:20:28;;;;;;;7.65;2.20;;;40.70;64.00;;;;;;5051388;28;20082;-52
2022/07/21 13:22:54;;;;;;;5.13;1.80;;;40.70;64.80;;;;;;5035752;28;20033;-54
2022/07/21 13:25:19;;;;;;;3.58;2.08;;;40.10;63.60;;;;;;5037317;28;20043;-55
2022/07/21 13:27:45;;;;;;;6.22;2.33;;;40.30;64.40;;;;;;5062602;28;20044;-49
2022/07/21 13:30:11;;;;;;;7.30;2.33;;;40.20;63.90;;;;;;5037418;28;20025;-54
2022/07/21 13:32:37;;;;;;;4.47;2.17;;;40.00;63.30;;;;;;5061338;28;20071;-50
2022/07/21 13:35:04;;;;;;;4.60;2.13;;;40.20;64.20;;;;;;5054035;28;20456;-50
2022/07/21 13:37:30;;;;;;;9.32;2.22;;;40.50;63.60;;;;;;5030468;28;20086;-52
2022/07/21 13:39:56;;;;;;;6.93;2.20;;;40.70;64.30;;;;;;5056000;28;20049;-54
2022/07/21 13:42:22;;;;;;;6.38;2.33;;;40.70;63.80;;;;;;5039059;28;20040;-49
2022/07/21 13:44:47;;;;;;;4.35;2.20;;;40.80;64.80;;;;;;5040901;28;20036;-51
2022/07/21 13:47:13;;;;;;;5.60;2.20;;;40.70;63.30;;;;;;5058425;28;20038;-51
2022/07/21 13:49:39;;;;;;;5.45;2.53;;;40.90;63.30;;;;;;5037831;28;20052;-50
2022/07/21 13:52:05;;;;;;;10.23;2.10;;;41.10;64.80;;;;;;5059499;28;20049;-49
2022/07/21 13:54:31;;;;;;;8.40;2.55;;;41.10;63.50;;;;;;5023448;28;20084;-51
2022/07/21 13:56:59;;;;;;;4.72;2.10;;;40.60;62.10;;;;;;5051813;28;20045;-49
2022/07/21 13:59:24;;;;;;;5.97;1.98;;;40.60;62.50;;;;;;5062580;28;20123;-51
2022/07/21 14:01:50;;;;;;;4.88;2.10;;;40.60;62.90;;;;;;5053615;28;20167;-49
2022/07/21 14:04:16;;;;;;;8.50;2.28;;;40.50;64.10;;;;;;5053810;28;20130;-49
2022/07/21 14:06:46;;;;;;;7.72;2.20;;;40.50;64.10;;;;;;5056457;28;20037;-52
2022/07/21 14:09:12;;;;;;;6.50;2.30;;;40.60;63.20;;;;;;5054094;28;20037;-51
2022/07/21 14:11:38;;;;;;;10.05;2.80;;;40.70;63.50;;;;;;5000063;28;20041;-49
2022/07/21 14:14:04;;;;;;;7.00;2.33;;;40.70;63.90;;;;;;5056133;28;20032;-51
2022/07/21 14:16:30;;;;;;;9.05;2.25;;;40.70;64.10;;;;;;5050283;28;20037;-51
2022/07/21 14:18:55;;;;;;;4.97;2.50;;;40.40;63.40;;;;;;5050541;28;20057;-49
2022/07/21 14:21:21;;;;;;;6.03;2.42;;;40.40;63.60;;;;;;5051215;28;20025;-48
2022/07/21 14:23:47;;;;;;;12.45;2.70;;;40.70;64.50;;;;;;4960259;28;20038;-51
2022/07/21 14:26:13;;;;;;;10.82;2.50;;;40.60;63.10;;;;;;4998988;28;20046;-52
2022/07/21 14:28:38;;;;;;;6.72;2.67;;;40.70;64.00;;;;;;5008922;28;20041;-49
2022/07/21 14:31:04;;;;;;;7.07;2.33;;;40.40;63.90;;;;;;5009977;28;20034;-50
2022/07/21 14:33:30;;;;;;;3.78;2.15;;;40.60;63.20;;;;;;5009090;28;20042;-51
2022/07/21 14:35:57;;;;;;;8.35;2.28;;;40.60;63.60;;;;;;5025461;28;20722;-51
2022/07/21 14:38:22;;;;;;;8.30;2.75;;;40.60;64.40;;;;;;5008939;28;20133;-49
2022/07/21 14:40:48;;;;;;;6.43;2.30;;;40.40;63.10;;;;;;4946702;28;20105;-50
2022/07/21 14:43:14;;;;;;;8.35;2.15;;;40.40;62.60;;;;;;5009139;28;20483;-50
2022/07/21 14:45:40;;;;;;;8.73;2.67;;;40.60;63.00;;;;;;5012012;28;20037;-52
2022/07/21 14:48:07;;;;;;;9.38;2.15;;;40.30;63.60;;;;;;5011097;28;20061;-54
2022/07/21 14:50:34;;;;;;;7.40;2.60;;;40.10;62.80;;;;;;5012964;28;20153;-48
2022/07/21 14:52:59;;;;;;;6.63;2.88;;;40.00;63.00;;;;;;5008219;28;20043;-49
2022/07/21 14:55:30;;;;;;;6.97;2.45;;;40.00;64.10;;;;;;5019902;28;20041;-48
2022/07/21 14:57:56;;;;;;;6.10;2.53;;;40.30;64.50;;;;;;5038138;28;20087;-51
2022/07/21 15:00:23;;;;;;;4.70;2.40;;;40.20;64.50;;;;;;5032319;28;20045;-56
2022/07/21 15:02:49;;;;;;;6.78;2.17;;;40.30;63.80;;;;;;5031770;28;20064;-56
2022/07/21 15:05:15;;;;;;;7.30;2.38;;;40.20;64.00;;;;;;5035167;28;20025;-56
2022/07/21 15:07:41;;;;;;;6.88;2.72;;;40.10;64.40;;;;;;5034506;28;20045;-50
2022/07/21 15:10:07;;;;;;;5.88;2.92;;;40.30;64.00;;;;;;5056208;28;20092;-53
2022/07/21 15:12:32;;;;;;;4.18;2.80;;;40.00;63.90;;;;;;5038070;28;20041;-54
2022/07/21 15:14:58;;;;;;;5.88;2.40;;;40.00;63.90;;;;;;5035223;28;20032;-50
2022/07/21 15:17:24;;;;;;;5.07;2.30;;;40.10;64.40;;;;;;5042018;28;20065;-49
2022/07/21 15:19:50;;;;;;;7.75;2.80;;;40.30;63.20;;;;;;5037054;28;20025;-53
2022/07/21 15:22:15;;;;;;;4.82;2.45;;;40.10;63.50;;;;;;5035839;28;20112;-51
2022/07/21 15:24:41;;;;;;;7.57;2.42;;;40.20;63.80;;;;;;5043241;28;20048;-49
2022/07/21 15:27:08;;;;;;;11.85;3.25;;;40.00;63.50;;;;;;5037317;28;20029;-51
2022/07/21 15:29:33;;;;;;;6.85;2.40;;;39.90;63.00;;;;;;5038823;28;20044;-53
2022/07/21 15:31:59;;;;;;;6.97;2.35;;;39.60;62.70;;;;;;5045001;28;20038;-50
2022/07/21 15:34:25;;;;;;;5.90;2.50;;;39.90;63.90;;;;;;5034043;28;20484;-52
2022/07/21 15:36:50;;;;;;;11.35;2.50;;;39.70;64.10;;;;;;5040242;28;20151;-52
2022/07/21 15:39:17;;;;;;;4.43;2.15;;;39.50;64.00;;;;;;5036570;28;20490;-52